Grand Forks, North Dakota
Current Conditions -  °F | °C
As of 11:13 AM on Sunday 23 Nov 2014 (Local Time) from KGFK Reporting Station
Overcast Overcast  
Wind Chill: 38°   Ceiling: 2900
Heat Index: 45°   Visibility: 10mi
Dew Point: 34°   Wind: 13mph
Humidity: 66%   Direction: 300°WNW
Pressure: 29.39"   Gusts: NA
Location:  47.92°N, 97.03°W
Report Text: KGFK 231713Z 30011KT 10SM BKN029 OVC039 07/01 A2939 RMK AO2
Loading
Personal Weather Stations






























Interactive Weather Map New forecast layout! Learn more

10-Day Weather Forecast

Advertisements
Track Severe Weather on mobile